createdAt,value
2023-04-02T00:01:07.103Z,9.61
2023-04-02T00:06:40.305Z,9.45
2023-04-02T00:11:46.625Z,9.45
2023-04-02T00:16:50.610Z,9.43
2023-04-02T00:21:57.817Z,9.31
2023-04-02T00:27:01.777Z,9.30
2023-04-02T00:32:06.405Z,9.38
2023-04-02T00:37:23.794Z,9.35
2023-04-02T00:42:29.357Z,9.29
2023-04-02T00:47:36.809Z,9.28
2023-04-02T00:52:43.346Z,9.28
2023-04-02T00:57:47.918Z,9.22
2023-04-02T01:03:30.392Z,9.27
2023-04-02T01:08:50.289Z,9.19
2023-04-02T01:14:00.165Z,9.18
2023-04-02T01:19:15.231Z,9.09
2023-04-02T01:24:21.644Z,9.17
2023-04-02T01:29:30.714Z,9.15
2023-04-02T01:34:35.096Z,9.12
2023-04-02T01:40:01.516Z,9.13
2023-04-02T01:45:12.383Z,9.01
2023-04-02T01:50:27.020Z,9.16
2023-04-02T01:55:40.718Z,9.03
2023-04-02T02:00:51.083Z,9.08
2023-04-02T02:05:55.927Z,8.97
2023-04-02T02:11:00.876Z,9.00
2023-04-02T02:16:06.484Z,8.99
2023-04-02T02:21:12.030Z,9.02
2023-04-02T02:26:16.818Z,8.98
2023-04-02T02:31:28.001Z,8.98
2023-04-02T02:36:40.227Z,9.02
2023-04-02T02:41:48.636Z,8.99
2023-04-02T02:46:58.437Z,8.98
2023-04-02T02:52:14.195Z,8.96
2023-04-02T02:57:29.116Z,9.04
2023-04-02T03:02:38.620Z,9.02
2023-04-02T03:07:45.176Z,9.02
2023-04-02T03:12:54.246Z,9.12
2023-04-02T03:18:03.464Z,9.08
2023-04-02T03:23:19.308Z,9.11
2023-04-02T03:28:29.368Z,9.14
2023-04-02T03:33:39.749Z,9.14
2023-04-02T03:38:48.632Z,9.19
2023-04-02T03:43:57.721Z,9.20
2023-04-02T03:49:09.068Z,9.10
2023-04-02T03:54:17.226Z,9.07
2023-04-02T03:59:28.312Z,9.16
2023-04-02T04:04:36.077Z,9.13
2023-04-02T04:09:43.020Z,9.13
2023-04-02T04:14:54.203Z,9.16
2023-04-02T04:20:08.675Z,9.04
2023-04-02T04:25:23.581Z,8.98
2023-04-02T04:30:36.431Z,9.04
2023-04-02T04:35:48.402Z,8.89
2023-04-02T04:40:57.073Z,8.95
2023-04-02T04:46:07.510Z,9.01
2023-04-02T04:51:21.098Z,9.19
2023-04-02T04:56:28.067Z,9.18
2023-04-02T05:01:46.529Z,9.31
2023-04-02T05:06:56.509Z,9.30
2023-04-02T05:12:12.080Z,9.36
2023-04-02T05:17:20.862Z,9.40
2023-04-02T05:22:34.553Z,9.46
2023-04-02T05:27:46.622Z,9.52
2023-04-02T05:32:57.626Z,9.52
2023-04-02T05:38:07.074Z,9.66
2023-04-02T05:43:16.502Z,9.72
2023-04-02T05:48:26.728Z,9.74
2023-04-02T05:53:36.192Z,9.81
2023-04-02T05:58:46.329Z,9.94
2023-04-02T06:04:12.933Z,10.08
2023-04-02T06:09:25.507Z,10.24
2023-04-02T06:14:29.374Z,10.20
2023-04-02T06:19:37.473Z,10.10
2023-04-02T06:24:43.057Z,10.19
2023-04-02T06:29:51.928Z,10.17
2023-04-02T06:34:56.560Z,10.18
2023-04-02T06:40:02.253Z,10.19
2023-04-02T06:45:08.123Z,10.29
2023-04-02T06:50:44.516Z,10.49
2023-04-02T06:55:53.938Z,10.45
2023-04-02T07:01:02.191Z,10.56
2023-04-02T07:06:19.287Z,10.55
2023-04-02T07:11:26.320Z,10.62
2023-04-02T07:16:36.808Z,10.82
2023-04-02T07:21:40.537Z,10.76
2023-04-02T07:26:47.707Z,10.76
2023-04-02T07:31:52.991Z,10.82
2023-04-02T07:36:56.571Z,11.03
2023-04-02T07:42:03.197Z,10.89
2023-04-02T07:47:07.491Z,10.85
2023-04-02T07:52:11.486Z,11.02
2023-04-02T07:57:16.576Z,11.03
2023-04-02T08:02:21.555Z,11.20
2023-04-02T08:07:24.952Z,11.25
2023-04-02T08:12:29.995Z,11.15
2023-04-02T08:17:33.798Z,11.21
2023-04-02T08:22:37.295Z,11.33
2023-04-02T08:27:42.101Z,11.38
2023-04-02T08:32:45.823Z,11.84
2023-04-02T08:37:49.527Z,11.91
2023-04-02T08:43:14.579Z,11.89
2023-04-02T08:48:18.279Z,11.84
2023-04-02T08:53:24.498Z,11.86
2023-04-02T08:58:41.627Z,11.77
2023-04-02T09:03:48.522Z,11.93
2023-04-02T09:08:54.317Z,12.15
2023-04-02T09:14:01.889Z,12.03
2023-04-02T09:19:17.216Z,11.95
2023-04-02T09:24:20.830Z,12.05
2023-04-02T09:29:41.194Z,12.09
2023-04-02T09:34:44.577Z,11.99
2023-04-02T09:39:48.154Z,12.04
2023-04-02T09:44:53.249Z,12.18
2023-04-02T09:49:56.675Z,12.27
2023-04-02T09:55:21.967Z,12.18
2023-04-02T10:00:41.526Z,12.05
2023-04-02T10:05:46.592Z,12.00
2023-04-02T10:10:55.156Z,11.78
2023-04-02T10:16:04.820Z,11.62
2023-04-02T10:21:11.821Z,11.51
2023-04-02T10:26:31.203Z,11.41
2023-04-02T10:31:55.443Z,11.39
2023-04-02T10:37:15.902Z,11.12
2023-04-02T10:42:28.143Z,11.31
2023-04-02T10:47:46.343Z,11.41
2023-04-02T10:53:02.882Z,11.52
2023-04-02T10:59:23.771Z,11.73
2023-04-02T11:04:44.059Z,11.78
2023-04-02T11:09:52.569Z,12.07
2023-04-02T11:15:13.953Z,12.47
2023-04-02T11:21:01.061Z,12.38
2023-04-02T11:26:48.145Z,12.33
2023-04-02T11:32:20.171Z,12.16
2023-04-02T11:37:37.897Z,12.12
2023-04-02T11:42:45.689Z,12.32
2023-04-02T11:48:25.604Z,12.62
2023-04-02T11:53:35.220Z,12.78
2023-04-02T11:58:57.950Z,12.38
2023-04-02T12:04:29.656Z,12.20
2023-04-02T12:09:49.138Z,12.38
2023-04-02T12:15:05.390Z,12.46
2023-04-02T12:20:25.117Z,12.81
2023-04-02T12:25:34.876Z,12.89
2023-04-02T12:30:41.125Z,12.95
2023-04-02T12:35:50.130Z,12.72
2023-04-02T12:41:00.813Z,12.73
2023-04-02T12:46:11.875Z,12.58
2023-04-02T12:51:17.693Z,12.81
2023-04-02T12:56:27.546Z,12.94
2023-04-02T13:01:35.600Z,13.02
2023-04-02T13:06:44.757Z,12.98
2023-04-02T13:11:52.836Z,13.05
2023-04-02T13:16:59.734Z,13.22
2023-04-02T13:22:26.981Z,13.37
2023-04-02T13:27:34.752Z,13.57
2023-04-02T13:32:43.050Z,13.91
2023-04-02T13:37:48.035Z,14.53
2023-04-02T13:42:55.008Z,14.68
2023-04-02T13:48:01.886Z,15.39
2023-04-02T13:53:10.532Z,15.63
2023-04-02T13:58:19.631Z,15.46
2023-04-02T14:03:25.770Z,15.44
2023-04-02T14:08:40.639Z,15.97
2023-04-02T14:14:07.939Z,16.05
2023-04-02T14:19:28.731Z,16.00
2023-04-02T14:24:45.532Z,15.21
2023-04-02T14:30:03.912Z,14.83
2023-04-02T14:35:18.294Z,15.19
2023-04-02T14:40:27.934Z,15.24
2023-04-02T14:45:49.960Z,14.53
2023-04-02T14:51:02.776Z,13.92
2023-04-02T14:56:10.803Z,13.94
2023-04-02T15:01:38.418Z,13.89
2023-04-02T15:07:09.029Z,14.01
2023-04-02T15:12:23.836Z,14.02
2023-04-02T15:17:35.334Z,14.02
2023-04-02T15:22:49.692Z,14.10
2023-04-02T15:28:16.067Z,14.31
2023-04-02T15:33:54.034Z,14.31
2023-04-02T15:39:15.596Z,14.39
2023-04-02T15:44:22.362Z,14.35
2023-04-02T15:49:45.283Z,14.32
2023-04-02T15:55:14.892Z,14.07
2023-04-02T16:00:28.579Z,13.85
2023-04-02T16:05:43.095Z,13.62
2023-04-02T16:10:51.624Z,13.42
2023-04-02T16:16:04.051Z,13.34
2023-04-02T16:21:09.287Z,13.15
2023-04-02T16:26:33.816Z,12.93
2023-04-02T16:31:51.269Z,12.72
2023-04-02T16:37:03.166Z,12.58
2023-04-02T16:42:21.366Z,12.44
2023-04-02T16:47:57.196Z,12.24
2023-04-02T17:00:27.691Z,11.76
2023-04-02T17:11:53.277Z,11.34
2023-04-02T17:17:06.665Z,11.21
2023-04-02T17:22:15.904Z,11.07
2023-04-02T17:27:27.688Z,10.89
2023-04-02T17:32:34.587Z,10.81
2023-04-02T17:37:45.941Z,10.86
2023-04-02T17:42:56.726Z,10.72
2023-04-02T17:48:06.076Z,10.60
2023-04-02T17:53:20.632Z,10.57
2023-04-02T17:58:56.600Z,10.53
2023-04-02T18:04:13.714Z,10.31
2023-04-02T18:09:38.235Z,10.10
2023-04-02T18:15:03.037Z,9.91
2023-04-02T18:20:21.982Z,9.89
2023-04-02T18:25:45.898Z,9.80
2023-04-02T18:30:57.341Z,9.84
2023-04-02T18:36:07.383Z,9.67
2023-04-02T18:41:30.327Z,9.58
2023-04-02T18:46:40.905Z,9.59
2023-04-02T18:51:46.097Z,9.58
2023-04-02T18:56:49.574Z,9.36
2023-04-02T19:01:56.171Z,9.36
2023-04-02T19:07:08.767Z,9.35
2023-04-02T19:12:17.060Z,9.41
2023-04-02T19:17:28.079Z,9.43
2023-04-02T19:22:46.226Z,9.46
2023-04-02T19:28:03.573Z,9.51
2023-04-02T19:33:15.970Z,9.55
2023-04-02T19:38:47.968Z,9.52
2023-04-02T19:43:51.922Z,9.44
2023-04-02T19:49:04.234Z,9.35
2023-04-02T19:54:09.093Z,9.35
2023-04-02T19:59:18.226Z,9.29
2023-04-02T20:04:22.560Z,9.06
2023-04-02T20:09:27.461Z,9.08
2023-04-02T20:14:31.028Z,9.13
2023-04-02T20:19:34.756Z,9.22
2023-04-02T20:24:41.074Z,9.20
2023-04-02T20:29:44.520Z,9.24
2023-04-02T20:34:48.299Z,9.24
2023-04-02T20:39:53.282Z,9.15
2023-04-02T20:44:56.970Z,9.24
2023-04-02T20:50:00.686Z,9.01
2023-04-02T20:55:06.475Z,9.08
2023-04-02T21:00:12.269Z,8.90
2023-04-02T21:05:15.860Z,8.96
2023-04-02T21:10:21.338Z,9.01
2023-04-02T21:15:24.795Z,9.08
2023-04-02T21:20:28.197Z,8.98
2023-04-02T21:25:33.281Z,8.99
2023-04-02T21:30:36.683Z,8.99
2023-04-02T21:35:40.156Z,8.89
2023-04-02T21:40:45.047Z,8.97
2023-04-02T21:45:48.380Z,8.84
2023-04-02T21:50:51.722Z,8.94
2023-04-02T21:56:03.501Z,9.06
2023-04-02T22:01:11.533Z,8.97
2023-04-02T22:06:25.525Z,8.98
2023-04-02T22:11:32.953Z,9.00
2023-04-02T22:16:37.010Z,8.80
2023-04-02T22:21:41.562Z,8.78
2023-04-02T22:26:47.067Z,8.77
2023-04-02T22:31:50.468Z,8.74
2023-04-02T22:36:54.245Z,8.67
2023-04-02T22:41:59.088Z,8.66
2023-04-02T22:47:02.480Z,8.62
2023-04-02T22:52:06.209Z,8.59
2023-04-02T22:57:11.579Z,8.56
2023-04-02T23:02:15.093Z,8.43
2023-04-02T23:07:18.732Z,8.43
2023-04-02T23:12:23.592Z,8.09
2023-04-02T23:17:27.307Z,8.05
2023-04-02T23:22:30.761Z,7.75
2023-04-02T23:27:35.956Z,7.54
2023-04-02T23:32:39.382Z,7.51
2023-04-02T23:37:43.314Z,7.61
2023-04-02T23:42:48.464Z,7.59
2023-04-02T23:47:51.862Z,7.83
2023-04-02T23:52:55.253Z,7.57
2023-04-02T23:58:00.000Z,7.60
